Česky Dansk Deutsch English Español Suomi Français Magyar Italiano Nederlands norsk Polski Português svenska Türkçe

 

Het Weer

Paris / Le Bourget (Frankrijk)

13:30, 23 augustus 2016 (GMT)

NWNNE
WE
SWSSE
Home            
Paris / Le Bourget Paris-Aeroport Charles De Gaulle Paris Met Center Paris-Orly Villacoublay Creil Fafb Melun Beauvais Chartres Evreux Toussus Le Noble Rouen Saint-Quentin Orleans Reims Chalons-Vatry Chateaudun Troyes Abbeville Cambrai Auxerre Suippes Range Met Vittefleur / St. Vale

Om een weerknop op uw website of weblog te plaatsen, copieer onderstaande code en plak die in uw pagina. In het eerste vakje staat HTML-code, in het tweede vakje UBB-code.


Add to Google

Details

Wind speed:3 bf, 10 kn, 5.1 m/s, 11.5 miles/h, 18.5 km/h
Wind direction:E, 080° - SSE, 160°
Visibility:Greater than 10000 m, 10 km, 32800 ft, 6.2 miles
Clouds:CAVOC
Temperature:32°C, 90°F
Gefühlte Temperatur:31°C, 88°F
Dew-point:13°C, 55°F
Atmospheric pressure:1022 hPa, 766.6 mmHg, 30.18 inHg, 1.009 atm
Relative humidity:31.5 %
METAR:LFPB 231330Z AUTO 12010KT 080V160 CAVOK 32/13 Q1022 NOSIG

Snelkoppelingen

Actuele weersinformatie van de hele wereld. Voeg locaties toe met het plus (+) symbool. Deze snelkoppelingen kunnen worden toegevoegd aan Google.

Lid van de Technetium groep

website free tracking
StatCounter NetStat W3C Validator

05-07-2022 03:08:52
astro.technetium.be money.technetium.be phote.technetium.be tafeltennistafel.technetium.be www.ligfiets.net